sensor_id;sensor_type;location;lat;lon;timestamp;P1;durP1;ratioP1;P2;durP2;ratioP2
74291;SDS011;62687;55.738;37.516;2023-01-31T00:00:23;4.65;;;2.05;;
74291;SDS011;62687;55.738;37.516;2023-01-31T00:03:08;3.80;;;2.20;;
74291;SDS011;62687;55.738;37.516;2023-01-31T00:05:52;6.53;;;2.33;;
74291;SDS011;62687;55.738;37.516;2023-01-31T00:08:36;4.13;;;2.13;;
74291;SDS011;62687;55.738;37.516;2023-01-31T00:11:21;4.60;;;2.65;;
74291;SDS011;62687;55.738;37.516;2023-01-31T00:14:07;4.70;;;2.20;;
74291;SDS011;62687;55.738;37.516;2023-01-31T00:16:53;12.40;;;2.33;;
74291;SDS011;62687;55.738;37.516;2023-01-31T00:19:37;4.10;;;2.33;;
74291;SDS011;62687;55.738;37.516;2023-01-31T00:22:21;4.28;;;2.20;;
74291;SDS011;62687;55.738;37.516;2023-01-31T00:25:06;4.18;;;2.10;;
74291;SDS011;62687;55.738;37.516;2023-01-31T00:27:50;4.70;;;2.28;;
74291;SDS011;62687;55.738;37.516;2023-01-31T00:30:36;5.15;;;2.20;;
74291;SDS011;62687;55.738;37.516;2023-01-31T00:33:20;5.10;;;2.60;;
74291;SDS011;62687;55.738;37.516;2023-01-31T00:36:06;5.13;;;2.53;;
74291;SDS011;62687;55.738;37.516;2023-01-31T00:38:56;5.30;;;2.55;;
74291;SDS011;62687;55.738;37.516;2023-01-31T00:41:43;4.65;;;2.13;;
74291;SDS011;62687;55.738;37.516;2023-01-31T00:44:27;5.07;;;2.55;;
74291;SDS011;62687;55.738;37.516;2023-01-31T00:47:11;4.95;;;2.47;;
74291;SDS011;62687;55.738;37.516;2023-01-31T00:49:55;4.85;;;2.78;;
74291;SDS011;62687;55.738;37.516;2023-01-31T00:52:39;6.82;;;2.25;;
74291;SDS011;62687;55.738;37.516;2023-01-31T00:55:23;6.78;;;1.70;;
74291;SDS011;62687;55.738;37.516;2023-01-31T00:58:07;4.32;;;2.28;;
74291;SDS011;62687;55.738;37.516;2023-01-31T01:00:51;5.20;;;2.55;;
74291;SDS011;62687;55.738;37.516;2023-01-31T01:03:35;5.55;;;2.40;;
74291;SDS011;62687;55.738;37.516;2023-01-31T01:06:20;5.55;;;2.88;;
74291;SDS011;62687;55.738;37.516;2023-01-31T01:09:05;5.20;;;3.13;;
74291;SDS011;62687;55.738;37.516;2023-01-31T01:11:49;6.10;;;2.63;;
74291;SDS011;62687;55.738;37.516;2023-01-31T01:14:33;5.50;;;2.42;;
74291;SDS011;62687;55.738;37.516;2023-01-31T01:17:17;5.22;;;2.85;;
74291;SDS011;62687;55.738;37.516;2023-01-31T01:20:01;5.13;;;2.83;;
74291;SDS011;62687;55.738;37.516;2023-01-31T01:22:46;5.18;;;2.85;;
74291;SDS011;62687;55.738;37.516;2023-01-31T01:25:30;4.68;;;2.08;;
74291;SDS011;62687;55.738;37.516;2023-01-31T01:28:24;4.57;;;2.25;;
74291;SDS011;62687;55.738;37.516;2023-01-31T01:31:08;5.25;;;2.75;;
74291;SDS011;62687;55.738;37.516;2023-01-31T01:33:58;5.53;;;2.28;;
74291;SDS011;62687;55.738;37.516;2023-01-31T01:36:43;5.50;;;2.97;;
74291;SDS011;62687;55.738;37.516;2023-01-31T01:39:27;6.35;;;3.00;;
74291;SDS011;62687;55.738;37.516;2023-01-31T01:42:13;5.60;;;2.33;;
74291;SDS011;62687;55.738;37.516;2023-01-31T01:45:10;6.47;;;2.85;;
74291;SDS011;62687;55.738;37.516;2023-01-31T01:47:58;4.45;;;2.28;;
74291;SDS011;62687;55.738;37.516;2023-01-31T01:50:47;4.78;;;2.72;;
74291;SDS011;62687;55.738;37.516;2023-01-31T01:53:32;5.75;;;2.95;;
74291;SDS011;62687;55.738;37.516;2023-01-31T01:56:25;3.25;;;1.75;;
74291;SDS011;62687;55.738;37.516;2023-01-31T01:59:18;4.68;;;2.72;;
74291;SDS011;62687;55.738;37.516;2023-01-31T02:02:24;6.03;;;2.95;;
74291;SDS011;62687;55.738;37.516;2023-01-31T02:05:08;6.07;;;3.15;;
74291;SDS011;62687;55.738;37.516;2023-01-31T02:07:58;5.75;;;3.05;;
74291;SDS011;62687;55.738;37.516;2023-01-31T02:13:54;6.15;;;2.92;;
74291;SDS011;62687;55.738;37.516;2023-01-31T02:16:42;5.72;;;2.67;;
74291;SDS011;62687;55.738;37.516;2023-01-31T02:22:39;5.05;;;2.78;;
74291;SDS011;62687;55.738;37.516;2023-01-31T02:28:35;4.85;;;2.83;;
74291;SDS011;62687;55.738;37.516;2023-01-31T02:53:23;9.05;;;3.13;;
74291;SDS011;62687;55.738;37.516;2023-01-31T02:56:20;6.32;;;3.58;;
74291;SDS011;62687;55.738;37.516;2023-01-31T02:59:16;5.07;;;2.78;;
74291;SDS011;62687;55.738;37.516;2023-01-31T03:02:04;7.15;;;2.85;;
74291;SDS011;62687;55.738;37.516;2023-01-31T03:04:50;6.95;;;3.38;;
74291;SDS011;62687;55.738;37.516;2023-01-31T03:07:34;5.30;;;2.60;;
74291;SDS011;62687;55.738;37.516;2023-01-31T03:16:40;6.20;;;2.85;;
74291;SDS011;62687;55.738;37.516;2023-01-31T03:19:59;5.93;;;3.03;;
74291;SDS011;62687;55.738;37.516;2023-01-31T03:23:15;7.45;;;3.17;;
74291;SDS011;62687;55.738;37.516;2023-01-31T03:26:02;9.55;;;2.97;;
74291;SDS011;62687;55.738;37.516;2023-01-31T03:28:49;5.97;;;2.95;;
74291;SDS011;62687;55.738;37.516;2023-01-31T03:31:46;9.05;;;3.70;;
74291;SDS011;62687;55.738;37.516;2023-01-31T03:34:34;5.28;;;2.63;;
74291;SDS011;62687;55.738;37.516;2023-01-31T03:40:18;5.95;;;3.08;;
74291;SDS011;62687;55.738;37.516;2023-01-31T03:43:10;4.82;;;2.67;;
74291;SDS011;62687;55.738;37.516;2023-01-31T03:46:07;6.70;;;3.35;;
74291;SDS011;62687;55.738;37.516;2023-01-31T03:48:54;5.68;;;2.85;;
74291;SDS011;62687;55.738;37.516;2023-01-31T03:51:41;7.72;;;3.22;;
74291;SDS011;62687;55.738;37.516;2023-01-31T03:54:30;10.50;;;3.72;;
74291;SDS011;62687;55.738;37.516;2023-01-31T03:57:27;13.25;;;3.90;;
74291;SDS011;62687;55.738;37.516;2023-01-31T04:00:19;12.45;;;3.80;;
74291;SDS011;62687;55.738;37.516;2023-01-31T04:03:19;9.63;;;3.97;;
74291;SDS011;62687;55.738;37.516;2023-01-31T04:06:21;6.65;;;3.40;;
74291;SDS011;62687;55.738;37.516;2023-01-31T04:09:06;7.45;;;3.25;;
74291;SDS011;62687;55.738;37.516;2023-01-31T04:11:50;9.68;;;4.03;;
74291;SDS011;62687;55.738;37.516;2023-01-31T04:14:34;16.42;;;4.00;;
74291;SDS011;62687;55.738;37.516;2023-01-31T04:17:18;6.00;;;3.30;;
74291;SDS011;62687;55.738;37.516;2023-01-31T04:20:03;10.07;;;3.53;;
74291;SDS011;62687;55.738;37.516;2023-01-31T04:22:49;7.78;;;3.78;;
74291;SDS011;62687;55.738;37.516;2023-01-31T04:25:33;10.57;;;4.32;;
74291;SDS011;62687;55.738;37.516;2023-01-31T04:28:17;6.72;;;3.38;;
74291;SDS011;62687;55.738;37.516;2023-01-31T04:31:01;6.50;;;3.13;;
74291;SDS011;62687;55.738;37.516;2023-01-31T04:33:44;8.52;;;3.97;;
74291;SDS011;62687;55.738;37.516;2023-01-31T04:36:28;5.03;;;2.63;;
74291;SDS011;62687;55.738;37.516;2023-01-31T04:39:12;9.05;;;3.90;;
74291;SDS011;62687;55.738;37.516;2023-01-31T04:41:58;9.95;;;4.30;;
74291;SDS011;62687;55.738;37.516;2023-01-31T04:44:42;8.95;;;4.20;;
74291;SDS011;62687;55.738;37.516;2023-01-31T04:47:26;9.05;;;3.85;;
74291;SDS011;62687;55.738;37.516;2023-01-31T04:50:10;8.93;;;4.43;;
74291;SDS011;62687;55.738;37.516;2023-01-31T04:52:54;9.25;;;3.88;;
74291;SDS011;62687;55.738;37.516;2023-01-31T04:55:39;8.80;;;4.15;;
74291;SDS011;62687;55.738;37.516;2023-01-31T04:58:23;10.55;;;4.22;;
74291;SDS011;62687;55.738;37.516;2023-01-31T05:01:07;9.98;;;4.57;;
74291;SDS011;62687;55.738;37.516;2023-01-31T05:03:51;6.18;;;2.70;;
74291;SDS011;62687;55.738;37.516;2023-01-31T05:06:35;7.80;;;4.20;;
74291;SDS011;62687;55.738;37.516;2023-01-31T05:09:19;8.35;;;4.25;;
74291;SDS011;62687;55.738;37.516;2023-01-31T05:12:05;7.63;;;4.72;;
74291;SDS011;62687;55.738;37.516;2023-01-31T05:14:50;6.75;;;3.70;;
74291;SDS011;62687;55.738;37.516;2023-01-31T05:17:34;8.02;;;3.78;;
74291;SDS011;62687;55.738;37.516;2023-01-31T05:20:18;12.88;;;3.92;;
74291;SDS011;62687;55.738;37.516;2023-01-31T05:23:02;11.02;;;4.88;;
74291;SDS011;62687;55.738;37.516;2023-01-31T05:25:47;6.00;;;3.67;;
74291;SDS011;62687;55.738;37.516;2023-01-31T05:28:33;7.75;;;4.07;;
74291;SDS011;62687;55.738;37.516;2023-01-31T05:31:17;8.35;;;4.22;;
74291;SDS011;62687;55.738;37.516;2023-01-31T05:34:01;9.85;;;3.28;;
74291;SDS011;62687;55.738;37.516;2023-01-31T05:36:45;15.25;;;4.55;;
74291;SDS011;62687;55.738;37.516;2023-01-31T05:39:30;7.00;;;3.78;;
74291;SDS011;62687;55.738;37.516;2023-01-31T05:42:14;12.57;;;4.70;;
74291;SDS011;62687;55.738;37.516;2023-01-31T05:44:57;9.55;;;4.50;;
74291;SDS011;62687;55.738;37.516;2023-01-31T05:47:41;8.88;;;4.00;;
74291;SDS011;62687;55.738;37.516;2023-01-31T05:50:28;11.30;;;4.00;;
74291;SDS011;62687;55.738;37.516;2023-01-31T05:53:12;8.45;;;4.15;;
74291;SDS011;62687;55.738;37.516;2023-01-31T05:55:56;9.85;;;3.33;;
74291;SDS011;62687;55.738;37.516;2023-01-31T05:58:41;11.02;;;4.05;;
74291;SDS011;62687;55.738;37.516;2023-01-31T06:01:25;9.13;;;4.22;;
74291;SDS011;62687;55.738;37.516;2023-01-31T06:04:10;6.85;;;4.15;;
74291;SDS011;62687;55.738;37.516;2023-01-31T06:06:54;12.73;;;4.45;;
74291;SDS011;62687;55.738;37.516;2023-01-31T06:09:38;9.27;;;5.03;;
74291;SDS011;62687;55.738;37.516;2023-01-31T06:12:23;8.63;;;3.97;;
74291;SDS011;62687;55.738;37.516;2023-01-31T06:15:07;9.63;;;4.30;;
74291;SDS011;62687;55.738;37.516;2023-01-31T06:17:51;10.93;;;4.70;;
74291;SDS011;62687;55.738;37.516;2023-01-31T06:20:35;8.43;;;4.20;;
74291;SDS011;62687;55.738;37.516;2023-01-31T06:23:21;9.15;;;4.78;;
74291;SDS011;62687;55.738;37.516;2023-01-31T06:26:05;7.13;;;3.03;;
74291;SDS011;62687;55.738;37.516;2023-01-31T06:28:49;12.38;;;4.85;;
74291;SDS011;62687;55.738;37.516;2023-01-31T06:31:33;13.95;;;4.55;;
74291;SDS011;62687;55.738;37.516;2023-01-31T06:34:18;9.27;;;4.93;;
74291;SDS011;62687;55.738;37.516;2023-01-31T06:37:02;9.77;;;4.50;;
74291;SDS011;62687;55.738;37.516;2023-01-31T06:39:47;9.88;;;4.60;;
74291;SDS011;62687;55.738;37.516;2023-01-31T06:42:31;9.55;;;4.80;;
74291;SDS011;62687;55.738;37.516;2023-01-31T06:45:15;12.65;;;5.63;;
74291;SDS011;62687;55.738;37.516;2023-01-31T06:47:59;9.70;;;3.88;;
74291;SDS011;62687;55.738;37.516;2023-01-31T06:50:44;11.18;;;4.78;;
74291;SDS011;62687;55.738;37.516;2023-01-31T06:53:28;10.20;;;4.30;;
74291;SDS011;62687;55.738;37.516;2023-01-31T06:58:40;10.50;;;4.97;;
74291;SDS011;62687;55.738;37.516;2023-01-31T07:01:24;8.70;;;4.55;;
74291;SDS011;62687;55.738;37.516;2023-01-31T07:04:09;9.70;;;4.70;;
74291;SDS011;62687;55.738;37.516;2023-01-31T07:06:53;8.82;;;3.92;;
74291;SDS011;62687;55.738;37.516;2023-01-31T07:09:37;11.77;;;5.63;;
74291;SDS011;62687;55.738;37.516;2023-01-31T07:12:21;10.40;;;4.57;;
74291;SDS011;62687;55.738;37.516;2023-01-31T07:15:05;9.75;;;5.07;;
74291;SDS011;62687;55.738;37.516;2023-01-31T07:17:50;11.98;;;4.53;;
74291;SDS011;62687;55.738;37.516;2023-01-31T07:20:41;10.25;;;4.68;;
74291;SDS011;62687;55.738;37.516;2023-01-31T07:23:25;8.63;;;4.82;;
74291;SDS011;62687;55.738;37.516;2023-01-31T07:26:09;8.43;;;3.85;;
74291;SDS011;62687;55.738;37.516;2023-01-31T07:28:53;12.00;;;4.45;;
74291;SDS011;62687;55.738;37.516;2023-01-31T07:31:38;9.65;;;4.93;;
74291;SDS011;62687;55.738;37.516;2023-01-31T07:34:22;10.93;;;5.05;;
74291;SDS011;62687;55.738;37.516;2023-01-31T07:37:06;10.32;;;4.40;;
74291;SDS011;62687;55.738;37.516;2023-01-31T07:39:50;11.82;;;4.65;;
74291;SDS011;62687;55.738;37.516;2023-01-31T07:42:37;10.40;;;4.97;;
74291;SDS011;62687;55.738;37.516;2023-01-31T07:45:22;12.10;;;5.45;;
74291;SDS011;62687;55.738;37.516;2023-01-31T07:48:06;10.18;;;4.35;;
74291;SDS011;62687;55.738;37.516;2023-01-31T07:50:51;11.95;;;5.38;;
74291;SDS011;62687;55.738;37.516;2023-01-31T07:53:40;9.65;;;4.93;;
74291;SDS011;62687;55.738;37.516;2023-01-31T07:56:25;13.90;;;5.13;;
74291;SDS011;62687;55.738;37.516;2023-01-31T07:59:08;9.82;;;4.97;;
74291;SDS011;62687;55.738;37.516;2023-01-31T08:01:52;9.93;;;4.55;;
74291;SDS011;62687;55.738;37.516;2023-01-31T08:04:55;11.35;;;4.45;;
74291;SDS011;62687;55.738;37.516;2023-01-31T08:07:39;12.38;;;5.22;;
74291;SDS011;62687;55.738;37.516;2023-01-31T08:10:24;8.50;;;4.88;;
74291;SDS011;62687;55.738;37.516;2023-01-31T08:13:08;10.40;;;4.85;;
74291;SDS011;62687;55.738;37.516;2023-01-31T08:15:54;9.48;;;4.97;;
74291;SDS011;62687;55.738;37.516;2023-01-31T08:18:38;7.78;;;3.33;;
74291;SDS011;62687;55.738;37.516;2023-01-31T08:21:23;10.98;;;4.72;;
74291;SDS011;62687;55.738;37.516;2023-01-31T08:24:07;10.43;;;5.00;;
74291;SDS011;62687;55.738;37.516;2023-01-31T08:26:51;11.40;;;4.68;;
74291;SDS011;62687;55.738;37.516;2023-01-31T08:29:35;10.82;;;5.25;;
74291;SDS011;62687;55.738;37.516;2023-01-31T08:32:19;8.23;;;4.18;;
74291;SDS011;62687;55.738;37.516;2023-01-31T08:35:03;10.13;;;4.28;;
74291;SDS011;62687;55.738;37.516;2023-01-31T08:37:47;8.80;;;4.45;;
74291;SDS011;62687;55.738;37.516;2023-01-31T08:40:31;9.38;;;4.25;;
74291;SDS011;62687;55.738;37.516;2023-01-31T08:43:15;8.75;;;4.65;;
74291;SDS011;62687;55.738;37.516;2023-01-31T08:45:59;7.93;;;3.78;;
74291;SDS011;62687;55.738;37.516;2023-01-31T08:48:43;8.48;;;4.18;;
74291;SDS011;62687;55.738;37.516;2023-01-31T08:51:27;13.90;;;4.72;;
74291;SDS011;62687;55.738;37.516;2023-01-31T08:54:11;6.55;;;3.75;;
74291;SDS011;62687;55.738;37.516;2023-01-31T08:56:56;8.23;;;4.57;;
74291;SDS011;62687;55.738;37.516;2023-01-31T08:59:40;8.18;;;4.38;;
74291;SDS011;62687;55.738;37.516;2023-01-31T09:02:24;16.52;;;5.00;;
74291;SDS011;62687;55.738;37.516;2023-01-31T09:05:08;13.57;;;4.57;;
74291;SDS011;62687;55.738;37.516;2023-01-31T09:07:52;10.63;;;4.50;;
74291;SDS011;62687;55.738;37.516;2023-01-31T09:10:37;9.07;;;4.03;;
74291;SDS011;62687;55.738;37.516;2023-01-31T09:13:21;11.85;;;4.32;;
74291;SDS011;62687;55.738;37.516;2023-01-31T09:16:07;9.25;;;4.88;;
74291;SDS011;62687;55.738;37.516;2023-01-31T09:18:52;9.70;;;4.50;;
74291;SDS011;62687;55.738;37.516;2023-01-31T09:21:37;10.00;;;4.72;;
74291;SDS011;62687;55.738;37.516;2023-01-31T09:24:21;8.20;;;4.05;;
74291;SDS011;62687;55.738;37.516;2023-01-31T09:27:05;9.77;;;4.57;;
74291;SDS011;62687;55.738;37.516;2023-01-31T09:29:49;7.10;;;4.07;;
74291;SDS011;62687;55.738;37.516;2023-01-31T09:32:33;13.98;;;5.03;;
74291;SDS011;62687;55.738;37.516;2023-01-31T09:35:19;13.32;;;4.53;;
74291;SDS011;62687;55.738;37.516;2023-01-31T09:38:04;9.40;;;4.53;;
74291;SDS011;62687;55.738;37.516;2023-01-31T09:40:47;13.45;;;5.50;;
74291;SDS011;62687;55.738;37.516;2023-01-31T09:43:37;9.57;;;4.68;;
74291;SDS011;62687;55.738;37.516;2023-01-31T09:46:26;7.05;;;3.42;;
74291;SDS011;62687;55.738;37.516;2023-01-31T09:49:17;11.07;;;4.78;;
74291;SDS011;62687;55.738;37.516;2023-01-31T09:52:08;9.77;;;4.50;;
74291;SDS011;62687;55.738;37.516;2023-01-31T09:54:53;10.02;;;4.70;;
74291;SDS011;62687;55.738;37.516;2023-01-31T10:00:32;10.48;;;5.30;;
74291;SDS011;62687;55.738;37.516;2023-01-31T10:06:32;10.32;;;4.82;;
74291;SDS011;62687;55.738;37.516;2023-01-31T10:09:30;8.07;;;4.20;;
74291;SDS011;62687;55.738;37.516;2023-01-31T10:12:20;7.65;;;4.10;;
74291;SDS011;62687;55.738;37.516;2023-01-31T10:15:24;8.93;;;3.60;;
74291;SDS011;62687;55.738;37.516;2023-01-31T10:18:16;9.82;;;4.65;;
74291;SDS011;62687;55.738;37.516;2023-01-31T10:24:19;12.75;;;4.90;;
74291;SDS011;62687;55.738;37.516;2023-01-31T10:27:26;10.30;;;5.07;;
74291;SDS011;62687;55.738;37.516;2023-01-31T10:30:15;11.10;;;4.65;;
74291;SDS011;62687;55.738;37.516;2023-01-31T10:33:08;10.15;;;4.75;;
74291;SDS011;62687;55.738;37.516;2023-01-31T10:36:04;9.40;;;4.70;;
74291;SDS011;62687;55.738;37.516;2023-01-31T10:44:53;11.05;;;4.85;;
74291;SDS011;62687;55.738;37.516;2023-01-31T10:56:46;12.52;;;4.72;;
74291;SDS011;62687;55.738;37.516;2023-01-31T10:59:36;11.18;;;4.95;;
74291;SDS011;62687;55.738;37.516;2023-01-31T11:02:27;9.43;;;4.75;;
74291;SDS011;62687;55.738;37.516;2023-01-31T11:05:17;10.68;;;4.97;;
74291;SDS011;62687;55.738;37.516;2023-01-31T11:11:19;10.60;;;5.20;;
74291;SDS011;62687;55.738;37.516;2023-01-31T11:14:06;8.95;;;4.80;;
74291;SDS011;62687;55.738;37.516;2023-01-31T11:17:01;10.30;;;5.05;;
74291;SDS011;62687;55.738;37.516;2023-01-31T11:19:50;9.43;;;4.78;;
74291;SDS011;62687;55.738;37.516;2023-01-31T11:22:39;11.40;;;5.18;;
74291;SDS011;62687;55.738;37.516;2023-01-31T11:25:23;9.73;;;5.07;;
74291;SDS011;62687;55.738;37.516;2023-01-31T11:28:19;8.90;;;4.85;;
74291;SDS011;62687;55.738;37.516;2023-01-31T11:31:06;7.43;;;3.85;;
74291;SDS011;62687;55.738;37.516;2023-01-31T11:34:03;14.25;;;4.70;;
74291;SDS011;62687;55.738;37.516;2023-01-31T11:37:18;9.90;;;5.10;;
74291;SDS011;62687;55.738;37.516;2023-01-31T11:40:16;10.07;;;4.88;;
74291;SDS011;62687;55.738;37.516;2023-01-31T11:43:06;10.27;;;4.72;;
74291;SDS011;62687;55.738;37.516;2023-01-31T11:46:07;11.13;;;5.40;;
74291;SDS011;62687;55.738;37.516;2023-01-31T11:48:51;11.38;;;4.53;;
74291;SDS011;62687;55.738;37.516;2023-01-31T11:51:35;10.13;;;4.70;;
74291;SDS011;62687;55.738;37.516;2023-01-31T11:54:22;12.80;;;5.43;;
74291;SDS011;62687;55.738;37.516;2023-01-31T11:57:29;11.57;;;5.07;;
74291;SDS011;62687;55.738;37.516;2023-01-31T12:00:20;8.45;;;4.60;;
74291;SDS011;62687;55.738;37.516;2023-01-31T12:03:11;9.20;;;4.72;;
74291;SDS011;62687;55.738;37.516;2023-01-31T12:06:05;12.55;;;5.00;;
74291;SDS011;62687;55.738;37.516;2023-01-31T12:08:55;10.20;;;4.10;;
74291;SDS011;62687;55.738;37.516;2023-01-31T12:11:40;10.02;;;4.75;;
74291;SDS011;62687;55.738;37.516;2023-01-31T12:14:38;7.90;;;4.05;;
74291;SDS011;62687;55.738;37.516;2023-01-31T12:17:23;10.05;;;4.45;;
74291;SDS011;62687;55.738;37.516;2023-01-31T12:23:05;8.32;;;4.22;;
74291;SDS011;62687;55.738;37.516;2023-01-31T12:52:51;7.43;;;3.05;;
74291;SDS011;62687;55.738;37.516;2023-01-31T13:04:50;10.25;;;4.20;;
74291;SDS011;62687;55.738;37.516;2023-01-31T13:07:46;9.45;;;4.78;;
74291;SDS011;62687;55.738;37.516;2023-01-31T13:13:24;10.77;;;4.35;;
74291;SDS011;62687;55.738;37.516;2023-01-31T13:16:30;11.85;;;5.82;;
74291;SDS011;62687;55.738;37.516;2023-01-31T13:22:19;10.52;;;5.00;;
74291;SDS011;62687;55.738;37.516;2023-01-31T13:25:23;11.27;;;5.55;;
74291;SDS011;62687;55.738;37.516;2023-01-31T13:28:20;8.52;;;3.97;;
74291;SDS011;62687;55.738;37.516;2023-01-31T13:31:10;7.85;;;3.30;;
74291;SDS011;62687;55.738;37.516;2023-01-31T13:34:04;14.52;;;5.35;;
74291;SDS011;62687;55.738;37.516;2023-01-31T13:40:40;8.52;;;3.67;;
74291;SDS011;62687;55.738;37.516;2023-01-31T13:43:03;9.60;;;4.55;;
74291;SDS011;62687;55.738;37.516;2023-01-31T13:46:02;11.98;;;5.35;;
74291;SDS011;62687;55.738;37.516;2023-01-31T13:49:00;11.07;;;5.78;;
74291;SDS011;62687;55.738;37.516;2023-01-31T13:51:51;8.88;;;4.75;;
74291;SDS011;62687;55.738;37.516;2023-01-31T13:58:02;12.27;;;5.13;;
74291;SDS011;62687;55.738;37.516;2023-01-31T14:01:05;14.80;;;4.70;;
74291;SDS011;62687;55.738;37.516;2023-01-31T14:12:35;10.40;;;4.32;;
74291;SDS011;62687;55.738;37.516;2023-01-31T14:24:18;11.88;;;4.75;;
74291;SDS011;62687;55.738;37.516;2023-01-31T14:27:09;13.40;;;5.22;;
74291;SDS011;62687;55.738;37.516;2023-01-31T14:39:18;9.27;;;3.15;;
74291;SDS011;62687;55.738;37.516;2023-01-31T14:48:14;9.45;;;4.55;;
74291;SDS011;62687;55.738;37.516;2023-01-31T14:56:53;13.18;;;4.88;;
74291;SDS011;62687;55.738;37.516;2023-01-31T14:59:45;11.85;;;4.53;;
74291;SDS011;62687;55.738;37.516;2023-01-31T15:02:40;10.68;;;4.85;;
74291;SDS011;62687;55.738;37.516;2023-01-31T15:13:50;9.63;;;4.40;;
74291;SDS011;62687;55.738;37.516;2023-01-31T15:16:35;11.35;;;4.22;;
74291;SDS011;62687;55.738;37.516;2023-01-31T15:19:20;13.73;;;5.32;;
74291;SDS011;62687;55.738;37.516;2023-01-31T15:22:07;12.57;;;4.43;;
74291;SDS011;62687;55.738;37.516;2023-01-31T15:24:54;10.60;;;4.60;;
74291;SDS011;62687;55.738;37.516;2023-01-31T15:27:40;10.07;;;4.53;;
74291;SDS011;62687;55.738;37.516;2023-01-31T15:30:26;11.07;;;4.60;;
74291;SDS011;62687;55.738;37.516;2023-01-31T15:33:17;12.40;;;4.85;;
74291;SDS011;62687;55.738;37.516;2023-01-31T15:39:25;12.52;;;5.40;;
74291;SDS011;62687;55.738;37.516;2023-01-31T15:45:29;12.07;;;5.72;;
74291;SDS011;62687;55.738;37.516;2023-01-31T15:48:14;10.88;;;4.60;;
74291;SDS011;62687;55.738;37.516;2023-01-31T15:51:00;14.38;;;6.00;;
74291;SDS011;62687;55.738;37.516;2023-01-31T15:53:44;12.80;;;5.18;;
74291;SDS011;62687;55.738;37.516;2023-01-31T15:56:30;11.45;;;5.22;;
74291;SDS011;62687;55.738;37.516;2023-01-31T15:59:16;11.60;;;5.68;;
74291;SDS011;62687;55.738;37.516;2023-01-31T16:02:02;13.43;;;5.22;;
74291;SDS011;62687;55.738;37.516;2023-01-31T16:04:47;13.70;;;5.43;;
74291;SDS011;62687;55.738;37.516;2023-01-31T16:07:31;14.68;;;5.75;;
74291;SDS011;62687;55.738;37.516;2023-01-31T16:10:15;10.30;;;4.97;;
74291;SDS011;62687;55.738;37.516;2023-01-31T16:13:00;12.38;;;5.38;;
74291;SDS011;62687;55.738;37.516;2023-01-31T16:15:44;10.55;;;4.75;;
74291;SDS011;62687;55.738;37.516;2023-01-31T16:21:21;12.05;;;5.35;;
74291;SDS011;62687;55.738;37.516;2023-01-31T16:24:13;14.00;;;6.50;;
74291;SDS011;62687;55.738;37.516;2023-01-31T16:27:07;11.43;;;5.10;;
74291;SDS011;62687;55.738;37.516;2023-01-31T16:29:56;19.80;;;7.20;;
74291;SDS011;62687;55.738;37.516;2023-01-31T16:32:41;10.68;;;5.13;;
74291;SDS011;62687;55.738;37.516;2023-01-31T16:35:26;12.10;;;5.32;;
74291;SDS011;62687;55.738;37.516;2023-01-31T16:38:19;11.95;;;5.57;;
74291;SDS011;62687;55.738;37.516;2023-01-31T16:41:09;11.90;;;4.50;;
74291;SDS011;62687;55.738;37.516;2023-01-31T16:43:55;13.95;;;5.82;;
74291;SDS011;62687;55.738;37.516;2023-01-31T16:46:41;12.95;;;5.38;;
74291;SDS011;62687;55.738;37.516;2023-01-31T16:49:29;13.20;;;6.03;;
74291;SDS011;62687;55.738;37.516;2023-01-31T16:52:25;14.75;;;5.65;;
74291;SDS011;62687;55.738;37.516;2023-01-31T16:55:11;14.07;;;6.25;;
74291;SDS011;62687;55.738;37.516;2023-01-31T16:57:58;13.80;;;5.53;;
74291;SDS011;62687;55.738;37.516;2023-01-31T17:00:42;11.52;;;5.82;;
74291;SDS011;62687;55.738;37.516;2023-01-31T17:03:27;12.77;;;4.97;;
74291;SDS011;62687;55.738;37.516;2023-01-31T17:06:19;15.07;;;5.35;;
74291;SDS011;62687;55.738;37.516;2023-01-31T17:09:05;13.13;;;5.70;;
74291;SDS011;62687;55.738;37.516;2023-01-31T17:11:52;14.77;;;6.20;;
74291;SDS011;62687;55.738;37.516;2023-01-31T17:14:37;14.00;;;5.85;;
74291;SDS011;62687;55.738;37.516;2023-01-31T17:17:22;15.32;;;5.68;;
74291;SDS011;62687;55.738;37.516;2023-01-31T17:20:08;12.90;;;5.85;;
74291;SDS011;62687;55.738;37.516;2023-01-31T17:22:56;15.65;;;6.15;;
74291;SDS011;62687;55.738;37.516;2023-01-31T17:25:40;9.60;;;4.80;;
74291;SDS011;62687;55.738;37.516;2023-01-31T17:28:25;11.65;;;5.20;;
74291;SDS011;62687;55.738;37.516;2023-01-31T17:31:12;13.45;;;5.95;;
74291;SDS011;62687;55.738;37.516;2023-01-31T17:36:45;13.70;;;5.93;;
74291;SDS011;62687;55.738;37.516;2023-01-31T17:39:30;16.88;;;6.00;;
74291;SDS011;62687;55.738;37.516;2023-01-31T17:42:15;14.13;;;6.10;;
74291;SDS011;62687;55.738;37.516;2023-01-31T17:45:01;9.82;;;5.32;;
74291;SDS011;62687;55.738;37.516;2023-01-31T17:47:46;15.18;;;5.13;;
74291;SDS011;62687;55.738;37.516;2023-01-31T17:50:30;13.40;;;5.82;;
74291;SDS011;62687;55.738;37.516;2023-01-31T17:53:14;17.38;;;5.65;;
74291;SDS011;62687;55.738;37.516;2023-01-31T17:55:58;13.20;;;5.85;;
74291;SDS011;62687;55.738;37.516;2023-01-31T17:58:42;13.85;;;5.72;;
74291;SDS011;62687;55.738;37.516;2023-01-31T18:01:27;13.32;;;5.80;;
74291;SDS011;62687;55.738;37.516;2023-01-31T18:04:11;13.77;;;5.30;;
74291;SDS011;62687;55.738;37.516;2023-01-31T18:06:55;13.70;;;6.22;;
74291;SDS011;62687;55.738;37.516;2023-01-31T18:09:39;13.52;;;5.13;;
74291;SDS011;62687;55.738;37.516;2023-01-31T18:12:23;9.50;;;4.68;;
74291;SDS011;62687;55.738;37.516;2023-01-31T18:15:08;11.95;;;5.32;;
74291;SDS011;62687;55.738;37.516;2023-01-31T18:17:52;12.57;;;5.95;;
74291;SDS011;62687;55.738;37.516;2023-01-31T18:20:37;12.65;;;5.85;;
74291;SDS011;62687;55.738;37.516;2023-01-31T18:23:21;12.55;;;6.03;;
74291;SDS011;62687;55.738;37.516;2023-01-31T18:26:06;12.48;;;5.82;;
74291;SDS011;62687;55.738;37.516;2023-01-31T18:28:51;11.35;;;5.53;;
74291;SDS011;62687;55.738;37.516;2023-01-31T18:31:44;11.88;;;5.57;;
74291;SDS011;62687;55.738;37.516;2023-01-31T18:34:38;13.35;;;6.47;;
74291;SDS011;62687;55.738;37.516;2023-01-31T18:37:28;13.02;;;5.90;;
74291;SDS011;62687;55.738;37.516;2023-01-31T18:40:37;14.40;;;6.68;;
74291;SDS011;62687;55.738;37.516;2023-01-31T18:43:38;12.80;;;5.32;;
74291;SDS011;62687;55.738;37.516;2023-01-31T18:46:39;14.98;;;6.50;;
74291;SDS011;62687;55.738;37.516;2023-01-31T18:49:40;12.73;;;6.13;;
74291;SDS011;62687;55.738;37.516;2023-01-31T18:55:28;12.35;;;5.63;;
74291;SDS011;62687;55.738;37.516;2023-01-31T18:58:23;12.65;;;3.92;;
74291;SDS011;62687;55.738;37.516;2023-01-31T19:11:26;12.38;;;5.18;;
74291;SDS011;62687;55.738;37.516;2023-01-31T19:17:14;14.40;;;5.63;;
74291;SDS011;62687;55.738;37.516;2023-01-31T19:20:22;15.02;;;6.20;;
74291;SDS011;62687;55.738;37.516;2023-01-31T19:25:45;14.10;;;6.05;;
74291;SDS011;62687;55.738;37.516;2023-01-31T19:28:46;12.23;;;5.40;;
74291;SDS011;62687;55.738;37.516;2023-01-31T19:32:05;13.55;;;5.40;;
74291;SDS011;62687;55.738;37.516;2023-01-31T19:34:53;10.52;;;4.35;;
74291;SDS011;62687;55.738;37.516;2023-01-31T19:37:38;12.65;;;5.80;;
74291;SDS011;62687;55.738;37.516;2023-01-31T19:40:22;12.23;;;5.22;;
74291;SDS011;62687;55.738;37.516;2023-01-31T19:43:06;14.25;;;6.20;;
74291;SDS011;62687;55.738;37.516;2023-01-31T19:45:50;12.90;;;5.32;;
74291;SDS011;62687;55.738;37.516;2023-01-31T19:48:34;11.60;;;5.25;;